Time;durP1;ratioP1;P1;durP2;ratioP2;P2;SDS_P1;SDS_P2;PMS_P1;PMS_P2;Temp;Humidity;BMP_temperature;BMP_pressure;BME280_temperature;BME280_humidity;BME280_pressure;Samples;Min_cycle;Max_cycle;Signal;HPM_P1;HPM_P2
2022/12/07 00:00:38;;;;;;;16.23;11.80;;;3.10;1.00;;;;;;6236104;28;20234;-53
2022/12/07 00:03:44;;;;;;;16.03;12.03;;;3.30;1.00;;;;;;6218997;28;20386;-53
2022/12/07 00:06:51;;;;;;;14.17;11.60;;;3.10;1.00;;;;;;6231127;28;20394;-53
2022/12/07 00:09:54;;;;;;;15.63;11.67;;;2.90;1.00;;;;;;6234134;28;20234;-52
2022/12/07 00:12:57;;;;;;;15.87;12.17;;;3.00;1.00;;;;;;6235420;28;20743;-53
2022/12/07 00:16:01;;;;;;;13.53;12.07;;;2.90;1.00;;;;;;6234083;28;20237;-54
2022/12/07 00:19:06;;;;;;;15.00;11.77;;;3.20;1.00;;;;;;6228877;28;20318;-54
2022/12/07 00:22:09;;;;;;;11.90;10.60;;;3.10;1.00;;;;;;6229514;28;20238;-54
2022/12/07 00:25:12;;;;;;;12.80;11.40;;;2.90;1.00;;;;;;6234651;28;20233;-53
2022/12/07 00:28:15;;;;;;;12.30;11.20;;;2.90;1.00;;;;;;6224455;28;20258;-53
2022/12/07 00:31:19;;;;;;;12.80;11.50;;;3.10;1.00;;;;;;6225465;28;20369;-53
2022/12/07 00:34:24;;;;;;;12.83;11.47;;;2.80;1.00;;;;;;6233477;28;20318;-53
2022/12/07 00:37:27;;;;;;;12.30;11.07;;;2.60;1.00;;;;;;6248002;28;20234;-53
2022/12/07 00:40:29;;;;;;;11.67;10.57;;;2.90;1.00;;;;;;6242402;28;20246;-51
2022/12/07 00:43:33;;;;;;;12.00;10.93;;;2.70;1.00;;;;;;6233767;28;20238;-51
2022/12/07 00:46:36;;;;;;;11.70;10.60;;;2.90;1.00;;;;;;6232889;28;20648;-51
2022/12/07 00:49:40;;;;;;;11.63;10.63;;;2.90;1.00;;;;;;6234499;28;20389;-53
2022/12/07 00:52:43;;;;;;;12.53;11.33;;;2.90;1.00;;;;;;6233710;28;20234;-52
2022/12/07 00:55:47;;;;;;;11.73;10.73;;;2.70;1.00;;;;;;6224666;28;20237;-53
2022/12/07 00:58:54;;;;;;;12.57;11.47;;;2.50;1.00;;;;;;6233032;28;20239;-53
2022/12/07 01:01:57;;;;;;;12.23;11.13;;;2.50;1.00;;;;;;6229412;28;20265;-53
2022/12/07 01:05:01;;;;;;;12.17;11.07;;;2.50;1.00;;;;;;6230861;28;20252;-52
2022/12/07 01:08:05;;;;;;;11.80;10.80;;;2.70;1.00;;;;;;6232742;28;20242;-52
2022/12/07 01:11:10;;;;;;;11.13;10.23;;;2.80;1.00;;;;;;6226824;28;20232;-52
2022/12/07 01:14:13;;;;;;;12.00;11.00;;;2.70;1.00;;;;;;6232667;28;20253;-53
2022/12/07 01:17:16;;;;;;;11.53;10.53;;;2.50;1.00;;;;;;6234077;28;20636;-53
2022/12/07 01:20:20;;;;;;;10.90;9.97;;;2.50;1.00;;;;;;6229701;28;20250;-53
2022/12/07 01:23:23;;;;;;;10.70;9.70;;;2.20;1.00;;;;;;6226365;28;20231;-53
2022/12/07 01:26:27;;;;;;;12.33;10.60;;;2.20;1.00;;;;;;6233062;28;20240;-53
2022/12/07 01:29:30;;;;;;;11.80;10.60;;;2.50;1.00;;;;;;6223909;28;20234;-53
2022/12/07 01:32:33;;;;;;;11.30;10.30;;;2.40;1.00;;;;;;6229489;28;20239;-53
2022/12/07 01:35:37;;;;;;;10.97;10.17;;;2.30;1.00;;;;;;6221235;28;20230;-54
2022/12/07 01:38:40;;;;;;;10.73;9.73;;;2.20;1.00;;;;;;6235613;28;20617;-53
2022/12/07 01:41:43;;;;;;;10.93;10.03;;;2.30;1.00;;;;;;6239782;28;20390;-53
2022/12/07 01:45:20;;;;;;;10.07;9.17;;;2.20;1.00;;;;;;6238090;28;20385;-52
2022/12/07 01:48:27;;;;;;;10.53;9.63;;;2.60;1.00;;;;;;6230056;28;20638;-52
2022/12/07 01:51:31;;;;;;;9.77;8.93;;;2.20;1.00;;;;;;6238633;28;20757;-53
2022/12/07 01:54:35;;;;;;;9.57;8.87;;;2.30;1.00;;;;;;6234560;28;20242;-53
2022/12/07 01:57:42;;;;;;;9.33;8.57;;;2.20;1.00;;;;;;6239455;28;20485;-54
2022/12/07 02:00:45;;;;;;;10.00;9.00;;;2.60;1.00;;;;;;6240454;28;20292;-53
2022/12/07 02:03:49;;;;;;;9.77;9.07;;;2.30;1.00;;;;;;6226916;28;20246;-54
2022/12/07 02:06:55;;;;;;;9.77;8.97;;;2.70;1.00;;;;;;6234594;28;20250;-53
2022/12/07 02:09:58;;;;;;;9.00;8.37;;;2.30;1.00;;;;;;6238634;28;20239;-53
2022/12/07 02:13:04;;;;;;;9.13;8.30;;;2.40;1.00;;;;;;6236962;28;20238;-58
2022/12/07 02:16:20;;;;;;;8.43;7.93;;;2.70;1.00;;;;;;6239587;28;20234;-53
2022/12/07 02:20:14;;;;;;;8.67;7.87;;;2.30;1.00;;;;;;6219060;28;20236;-52
2022/12/07 02:23:40;;;;;;;8.40;7.80;;;2.20;1.00;;;;;;6212660;28;20235;-52
2022/12/07 02:27:25;;;;;;;8.50;7.90;;;2.10;1.00;;;;;;6214415;28;20240;-52
2022/12/07 02:30:33;;;;;;;8.83;8.17;;;2.50;1.00;;;;;;6212444;28;20223;-53
2022/12/07 02:33:41;;;;;;;9.67;8.80;;;2.20;1.00;;;;;;6207257;28;20235;-52
2022/12/07 02:36:51;;;;;;;9.47;8.67;;;2.20;1.00;;;;;;6211760;28;20240;-52
2022/12/07 02:39:58;;;;;;;9.13;8.47;;;2.30;1.00;;;;;;6197307;28;20239;-52
2022/12/07 02:43:17;;;;;;;9.23;8.63;;;2.10;1.00;;;;;;6213061;28;20259;-51
2022/12/07 02:46:24;;;;;;;9.50;8.80;;;2.30;1.00;;;;;;6211200;28;20286;-54
2022/12/07 02:49:29;;;;;;;9.83;8.93;;;2.10;1.00;;;;;;6213552;28;20304;-53
2022/12/07 02:52:32;;;;;;;10.30;9.50;;;2.40;1.00;;;;;;6213611;28;20721;-54
2022/12/07 02:55:41;;;;;;;9.73;9.03;;;2.30;1.00;;;;;;6210755;28;20228;-53
2022/12/07 02:58:58;;;;;;;11.03;10.17;;;2.30;1.00;;;;;;6211742;28;20829;-53
2022/12/07 03:02:15;;;;;;;10.27;9.37;;;2.20;1.00;;;;;;6211732;28;20764;-53
2022/12/07 03:05:40;;;;;;;10.90;9.97;;;2.20;1.00;;;;;;6199963;28;20382;-55
2022/12/07 03:08:52;;;;;;;11.27;9.63;;;2.30;1.00;;;;;;6211231;28;20239;-53
2022/12/07 03:12:04;;;;;;;11.83;10.90;;;2.10;1.00;;;;;;6213299;28;20411;-53
2022/12/07 03:15:13;;;;;;;10.70;9.90;;;2.30;1.00;;;;;;6210637;28;20237;-53
2022/12/07 03:18:22;;;;;;;11.93;10.77;;;2.10;1.00;;;;;;6205821;28;20266;-52
2022/12/07 03:21:28;;;;;;;9.57;8.77;;;2.30;1.00;;;;;;6211899;28;20315;-47
2022/12/07 03:24:36;;;;;;;11.03;10.03;;;2.00;1.00;;;;;;6212007;28;20251;-51
2022/12/07 03:27:45;;;;;;;11.10;10.07;;;2.00;1.00;;;;;;6203671;28;20274;-53
2022/12/07 03:30:53;;;;;;;10.67;9.67;;;2.20;1.00;;;;;;6213293;28;20670;-53
2022/12/07 03:34:06;;;;;;;10.63;9.73;;;2.40;1.00;;;;;;6205821;28;20581;-53
2022/12/07 03:37:14;;;;;;;11.17;10.10;;;2.20;1.00;;;;;;6207299;28;20234;-53
2022/12/07 03:40:23;;;;;;;11.17;9.97;;;2.10;1.00;;;;;;6221216;28;20250;-53
2022/12/07 03:43:28;;;;;;;12.53;10.93;;;2.10;1.00;;;;;;6211156;28;20621;-53
2022/12/07 03:46:42;;;;;;;11.20;10.13;;;2.20;1.00;;;;;;6209400;28;20235;-54
2022/12/07 03:49:52;;;;;;;11.23;10.20;;;2.40;1.00;;;;;;6202064;28;20231;-50
2022/12/07 03:52:59;;;;;;;11.63;10.50;;;2.30;1.00;;;;;;6212954;28;20239;-52
2022/12/07 03:56:03;;;;;;;12.13;10.60;;;2.30;1.00;;;;;;6210539;28;20247;-52
2022/12/07 03:59:07;;;;;;;12.10;10.93;;;2.00;1.00;;;;;;6211761;28;20247;-53
2022/12/07 04:02:13;;;;;;;11.03;9.97;;;2.30;1.00;;;;;;6208254;28;20250;-53
2022/12/07 04:05:18;;;;;;;11.50;10.43;;;2.20;1.00;;;;;;6211510;28;20235;-52
2022/12/07 04:08:21;;;;;;;11.90;10.80;;;2.10;1.00;;;;;;6211074;28;20236;-53
2022/12/07 04:11:24;;;;;;;12.90;11.47;;;2.20;1.00;;;;;;6208520;28;20309;-53
2022/12/07 04:14:27;;;;;;;12.67;11.37;;;2.10;1.00;;;;;;6202819;28;20242;-53
2022/12/07 04:17:30;;;;;;;12.40;11.20;;;2.20;1.00;;;;;;6203990;28;20375;-53
2022/12/07 04:20:34;;;;;;;15.80;12.17;;;2.00;1.00;;;;;;6196864;28;20753;-52
2022/12/07 04:23:37;;;;;;;13.97;12.57;;;1.90;1.00;;;;;;6210367;28;20231;-55
2022/12/07 04:26:41;;;;;;;13.77;11.77;;;2.00;1.00;;;;;;6206963;28;20254;-53
2022/12/07 04:29:44;;;;;;;14.33;12.83;;;1.70;1.00;;;;;;6195199;28;20230;-53
2022/12/07 04:32:47;;;;;;;17.47;13.87;;;1.90;1.00;;;;;;6196740;28;20227;-52
2022/12/07 04:35:51;;;;;;;16.47;14.23;;;2.10;1.00;;;;;;6215281;28;20242;-51
2022/12/07 04:38:55;;;;;;;19.33;13.70;;;2.00;1.00;;;;;;6204449;28;20278;-53
2022/12/07 04:41:59;;;;;;;16.73;14.37;;;1.90;1.00;;;;;;6204269;28;20239;-52
2022/12/07 04:45:02;;;;;;;20.50;16.23;;;1.90;1.00;;;;;;6210731;28;20242;-52
2022/12/07 04:48:05;;;;;;;21.50;16.03;;;2.00;1.00;;;;;;6206487;28;20235;-54
2022/12/07 04:51:09;;;;;;;24.00;17.23;;;1.80;1.00;;;;;;6202151;28;20246;-53
2022/12/07 04:54:13;;;;;;;20.07;15.03;;;1.90;1.00;;;;;;6209718;28;20239;-53
2022/12/07 04:57:16;;;;;;;23.77;17.27;;;2.10;1.00;;;;;;6207785;28;20244;-52
2022/12/07 05:00:19;;;;;;;24.97;17.27;;;2.00;1.00;;;;;;6207933;28;20235;-53
2022/12/07 05:03:22;;;;;;;21.60;17.00;;;2.00;1.00;;;;;;6209280;28;20713;-53
2022/12/07 05:06:27;;;;;;;27.00;17.97;;;1.90;1.00;;;;;;6203623;28;20232;-52
2022/12/07 05:09:30;;;;;;;25.90;18.17;;;2.00;1.00;;;;;;6203539;28;20235;-53
2022/12/07 05:12:33;;;;;;;24.63;18.23;;;2.20;1.00;;;;;;6209184;28;20235;-53
2022/12/07 05:15:36;;;;;;;29.87;18.97;;;2.20;1.00;;;;;;6208785;28;20235;-52
2022/12/07 05:18:39;;;;;;;29.13;19.13;;;2.10;1.00;;;;;;6203219;28;20238;-53
2022/12/07 05:21:43;;;;;;;28.70;19.97;;;2.30;1.00;;;;;;6206367;28;20250;-53
2022/12/07 05:24:46;;;;;;;29.83;19.87;;;2.20;1.00;;;;;;6210383;28;20266;-52
2022/12/07 05:27:49;;;;;;;28.97;19.00;;;2.30;1.00;;;;;;6209764;28;20258;-53
2022/12/07 05:30:52;;;;;;;25.70;19.07;;;2.10;1.00;;;;;;6213371;28;20604;-53
2022/12/07 05:34:01;;;;;;;31.27;20.07;;;2.20;1.00;;;;;;6206572;28;20240;-52
2022/12/07 05:37:05;;;;;;;29.70;19.77;;;2.50;1.00;;;;;;6208810;28;20243;-52
2022/12/07 05:40:10;;;;;;;33.27;21.23;;;2.30;1.00;;;;;;6208395;28;20227;-53
2022/12/07 05:43:13;;;;;;;32.27;22.20;;;2.40;1.00;;;;;;6205524;28;20627;-52
2022/12/07 05:46:16;;;;;;;34.37;21.73;;;2.20;1.00;;;;;;6208765;28;20247;-52
2022/12/07 05:49:19;;;;;;;36.93;22.70;;;2.30;1.00;;;;;;6208776;28;20249;-53
2022/12/07 05:52:23;;;;;;;32.40;21.87;;;2.30;1.00;;;;;;6207313;28;20241;-53
2022/12/07 05:55:26;;;;;;;37.00;22.50;;;2.30;1.00;;;;;;6207320;28;20524;-53
2022/12/07 06:01:50;;;;;;;41.20;23.73;;;2.70;1.00;;;;;;6194000;28;20232;-51
2022/12/07 06:04:53;;;;;;;36.43;22.17;;;2.50;1.00;;;;;;6208969;28;20258;-53
2022/12/07 06:07:58;;;;;;;33.30;22.80;;;2.70;1.00;;;;;;6207913;28;20661;-53
2022/12/07 06:14:27;;;;;;;35.83;22.90;;;2.60;1.00;;;;;;6212166;28;20235;-53
2022/12/07 06:17:30;;;;;;;40.50;24.67;;;2.60;1.00;;;;;;6215850;28;20231;-53
2022/12/07 06:20:33;;;;;;;38.40;24.50;;;2.70;1.00;;;;;;6205660;28;20238;-54
2022/12/07 06:23:38;;;;;;;42.73;24.33;;;2.80;1.00;;;;;;6211198;28;20243;-52
2022/12/07 06:26:41;;;;;;;41.23;23.97;;;3.10;1.00;;;;;;6211990;28;20243;-53
2022/12/07 06:29:44;;;;;;;38.37;22.70;;;2.90;1.00;;;;;;6221933;28;20461;-53
2022/12/07 06:32:47;;;;;;;36.63;23.30;;;3.00;1.00;;;;;;6204808;28;20237;-54
2022/12/07 06:35:49;;;;;;;41.17;23.03;;;2.70;1.00;;;;;;6214315;28;20228;-57
2022/12/07 06:38:54;;;;;;;38.07;22.90;;;3.00;1.00;;;;;;6212398;28;20236;-53
2022/12/07 06:41:57;;;;;;;35.57;21.33;;;3.10;1.00;;;;;;6210442;28;20539;-53
2022/12/07 06:45:00;;;;;;;34.83;21.73;;;2.80;1.00;;;;;;6209235;28;20247;-53
2022/12/07 06:48:03;;;;;;;32.03;20.23;;;3.20;1.00;;;;;;6214263;28;20613;-53
2022/12/07 06:51:06;;;;;;;32.33;21.77;;;2.90;1.00;;;;;;6207755;28;20239;-52
2022/12/07 06:54:12;;;;;;;32.53;22.30;;;2.90;1.00;;;;;;6209676;28;20235;-53
2022/12/07 06:57:16;;;;;;;33.40;21.27;;;3.20;1.00;;;;;;6209712;28;20250;-56
2022/12/07 07:00:19;;;;;;;32.87;22.00;;;3.20;1.00;;;;;;6201013;28;20239;-58
2022/12/07 07:03:24;;;;;;;37.40;23.57;;;3.00;1.00;;;;;;6210968;28;20412;-53
2022/12/07 07:06:27;;;;;;;32.47;22.27;;;3.00;1.00;;;;;;6211716;28;20737;-53
2022/12/07 07:09:31;;;;;;;36.13;22.73;;;3.20;1.00;;;;;;6206902;28;20228;-53
2022/12/07 07:12:34;;;;;;;34.83;22.50;;;3.20;1.00;;;;;;6210643;28;20600;-54
2022/12/07 07:15:39;;;;;;;35.27;22.40;;;3.10;1.00;;;;;;6210872;28;20462;-53
2022/12/07 07:18:42;;;;;;;35.80;22.30;;;3.30;1.00;;;;;;6210939;28;20266;-53
2022/12/07 07:21:45;;;;;;;33.77;22.63;;;3.50;1.00;;;;;;6206966;28;20235;-51
2022/12/07 07:24:49;;;;;;;32.47;22.03;;;3.50;1.00;;;;;;6242463;28;20243;-51
2022/12/07 07:27:52;;;;;;;30.97;21.60;;;3.70;1.00;;;;;;6234891;28;20242;-51
2022/12/07 07:30:55;;;;;;;30.57;21.67;;;3.70;1.00;;;;;;6233025;28;20237;-54
2022/12/07 07:33:58;;;;;;;32.97;21.90;;;3.40;1.00;;;;;;6236559;28;20266;-53
2022/12/07 07:37:01;;;;;;;29.47;19.17;;;3.80;1.00;;;;;;6234287;28;20231;-52
2022/12/07 07:40:07;;;;;;;30.17;20.20;;;3.50;1.00;;;;;;6234598;28;20243;-52
2022/12/07 07:43:10;;;;;;;25.17;18.53;;;3.80;1.00;;;;;;6235398;28;20253;-52
2022/12/07 07:46:13;;;;;;;23.77;17.27;;;3.80;1.00;;;;;;6236204;28;20245;-54
2022/12/07 07:49:16;;;;;;;21.17;16.57;;;3.90;1.00;;;;;;6234738;28;20289;-53
2022/12/07 07:52:19;;;;;;;25.23;16.47;;;3.70;1.00;;;;;;6234033;28;20231;-53
2022/12/07 07:55:23;;;;;;;18.30;15.60;;;3.90;1.00;;;;;;6235699;28;20234;-53
2022/12/07 07:58:26;;;;;;;21.83;15.13;;;3.50;1.00;;;;;;6234381;28;20254;-54
2022/12/07 08:01:29;;;;;;;17.47;15.23;;;3.90;1.00;;;;;;6230260;28;20241;-54
2022/12/07 08:04:32;;;;;;;18.03;13.87;;;3.80;1.00;;;;;;6237007;28;20234;-52
2022/12/07 08:07:35;;;;;;;20.33;13.60;;;3.90;1.00;;;;;;6239923;28;20836;-54
2022/12/07 08:10:40;;;;;;;14.97;13.07;;;3.70;1.00;;;;;;6232993;28;20241;-52
2022/12/07 08:13:45;;;;;;;13.17;11.77;;;3.70;1.00;;;;;;6242546;28;20241;-52
2022/12/07 08:16:48;;;;;;;14.80;12.70;;;3.80;1.00;;;;;;6232199;28;20251;-53
2022/12/07 08:19:51;;;;;;;12.87;11.53;;;3.90;1.00;;;;;;6231697;28;20485;-54
2022/12/07 08:22:54;;;;;;;12.60;11.60;;;3.80;1.00;;;;;;6237469;28;20246;-53
2022/12/07 08:26:02;;;;;;;12.57;11.30;;;3.90;1.00;;;;;;6231220;28;20262;-54
2022/12/07 08:29:05;;;;;;;13.20;11.40;;;4.00;1.00;;;;;;6226348;28;20253;-54
2022/12/07 08:32:08;;;;;;;11.23;10.17;;;4.10;1.00;;;;;;6228121;28;20624;-53
2022/12/07 08:35:12;;;;;;;11.13;10.17;;;4.20;1.00;;;;;;6237133;28;20235;-53
2022/12/07 08:38:15;;;;;;;10.53;9.53;;;4.10;1.00;;;;;;6231868;28;20238;-54
2022/12/07 08:41:20;;;;;;;9.63;8.73;;;4.10;1.00;;;;;;6232379;28;20244;-54
2022/12/07 08:44:23;;;;;;;9.17;8.47;;;4.10;1.00;;;;;;6234249;28;20234;-53
2022/12/07 08:47:26;;;;;;;9.77;8.17;;;4.00;1.00;;;;;;6233853;28;20246;-53
2022/12/07 08:50:29;;;;;;;7.43;6.93;;;4.20;1.00;;;;;;6227032;28;20234;-54
2022/12/07 08:53:34;;;;;;;7.60;7.00;;;4.10;1.00;;;;;;6233397;28;20238;-54
2022/12/07 08:56:38;;;;;;;8.17;7.40;;;4.10;1.00;;;;;;6231488;28;20235;-52
2022/12/07 08:59:41;;;;;;;6.90;6.60;;;3.90;1.00;;;;;;6234142;28;20234;-53
2022/12/07 09:02:44;;;;;;;6.43;6.20;;;3.90;1.00;;;;;;6233269;28;20243;-54
2022/12/07 09:05:48;;;;;;;6.00;5.80;;;4.00;1.00;;;;;;6238562;28;20246;-53
2022/12/07 09:08:55;;;;;;;5.00;4.90;;;4.20;1.00;;;;;;6233033;28;20243;-54
2022/12/07 09:11:59;;;;;;;5.20;4.90;;;3.90;1.00;;;;;;6235763;28;20246;-53
2022/12/07 09:15:02;;;;;;;5.70;5.40;;;4.40;1.00;;;;;;6232212;28;20238;-53
2022/12/07 09:18:05;;;;;;;5.23;5.07;;;4.10;1.00;;;;;;6233922;28;20539;-53
2022/12/07 09:21:09;;;;;;;5.03;4.93;;;4.30;1.00;;;;;;6205952;28;20232;-54
2022/12/07 09:24:13;;;;;;;4.57;4.47;;;4.10;1.00;;;;;;6211787;28;20239;-53
2022/12/07 09:27:18;;;;;;;4.53;4.43;;;4.30;1.00;;;;;;6208870;28;20710;-54
2022/12/07 09:30:21;;;;;;;4.77;4.67;;;4.10;1.00;;;;;;6205386;28;20658;-52
2022/12/07 09:33:24;;;;;;;5.07;4.77;;;4.00;1.00;;;;;;6212786;28;20281;-53
2022/12/07 09:36:28;;;;;;;4.97;4.70;;;4.30;1.00;;;;;;6207776;28;20247;-53
2022/12/07 09:39:31;;;;;;;5.33;5.13;;;4.30;1.00;;;;;;6206887;28;20636;-55
2022/12/07 09:42:39;;;;;;;5.10;5.00;;;4.10;1.00;;;;;;6207638;28;20246;-54
2022/12/07 09:45:45;;;;;;;5.40;5.20;;;3.90;1.00;;;;;;6206884;28;20231;-53
2022/12/07 09:48:52;;;;;;;5.17;5.07;;;4.10;1.00;;;;;;6209068;28;20231;-52
2022/12/07 09:52:03;;;;;;;5.27;5.07;;;4.00;1.00;;;;;;6210579;28;20235;-55
2022/12/07 09:55:11;;;;;;;5.80;5.53;;;4.10;1.00;;;;;;6217431;28;20741;-53
2022/12/07 09:58:21;;;;;;;4.77;4.67;;;3.80;1.00;;;;;;6212655;28;20246;-53
2022/12/07 10:01:24;;;;;;;5.20;5.10;;;4.00;1.00;;;;;;6211924;28;20266;-54
2022/12/07 10:04:29;;;;;;;5.13;5.03;;;4.10;1.00;;;;;;6216457;28;20246;-53
2022/12/07 10:07:32;;;;;;;4.83;4.73;;;4.00;1.00;;;;;;6214018;28;20239;-53
2022/12/07 10:10:38;;;;;;;4.90;4.80;;;4.10;1.00;;;;;;6210878;28;20238;-53
2022/12/07 10:13:45;;;;;;;4.90;4.80;;;3.70;1.00;;;;;;6215410;28;20242;-53
2022/12/07 10:16:48;;;;;;;4.63;4.53;;;3.80;1.00;;;;;;6205971;28;20247;-53
2022/12/07 10:19:51;;;;;;;4.37;4.27;;;4.10;1.00;;;;;;6212018;28;20231;-53
2022/12/07 10:22:59;;;;;;;4.93;4.73;;;3.90;1.00;;;;;;6216586;28;20250;-53
2022/12/07 10:26:22;;;;;;;4.40;4.30;;;3.80;1.00;;;;;;6210919;28;20231;-54
2022/12/07 10:29:31;;;;;;;5.23;5.10;;;3.90;1.00;;;;;;6215078;28;20234;-54
2022/12/07 10:32:36;;;;;;;4.23;4.17;;;3.90;1.00;;;;;;6208744;28;20243;-54
2022/12/07 10:35:44;;;;;;;5.10;4.90;;;3.80;1.00;;;;;;6211652;28;20235;-55
2022/12/07 10:38:49;;;;;;;4.80;4.70;;;3.70;1.00;;;;;;6212709;28;20405;-53
2022/12/07 10:41:57;;;;;;;5.33;5.03;;;3.90;1.00;;;;;;6213966;28;20258;-53
2022/12/07 10:45:15;;;;;;;5.27;4.97;;;3.70;1.00;;;;;;6205403;28;20723;-54
2022/12/07 10:48:24;;;;;;;5.43;5.17;;;3.70;1.00;;;;;;6208564;28;20243;-52
2022/12/07 10:51:35;;;;;;;5.13;5.03;;;4.00;1.00;;;;;;6212502;28;20235;-53
2022/12/07 10:54:50;;;;;;;5.90;5.40;;;3.80;1.00;;;;;;6210815;28;20242;-53
2022/12/07 10:58:06;;;;;;;6.03;5.83;;;4.10;1.00;;;;;;6211541;28;20505;-53
2022/12/07 11:01:19;;;;;;;6.17;5.73;;;3.80;1.00;;;;;;6212735;28;20706;-52
2022/12/07 11:04:35;;;;;;;6.53;6.13;;;3.80;1.00;;;;;;6207882;28;20236;-52
2022/12/07 11:07:48;;;;;;;6.60;6.30;;;4.10;1.00;;;;;;6208538;28;20619;-53
2022/12/07 11:11:05;;;;;;;6.53;6.33;;;4.00;1.00;;;;;;6204840;28;20235;-54
2022/12/07 11:14:22;;;;;;;6.67;6.27;;;4.10;1.00;;;;;;6209478;28;20231;-53
2022/12/07 11:17:35;;;;;;;6.97;6.50;;;4.20;1.00;;;;;;6210338;28;20235;-53
2022/12/07 11:20:44;;;;;;;6.90;6.40;;;4.10;1.00;;;;;;6206010;28;20239;-53
2022/12/07 11:23:53;;;;;;;6.67;6.33;;;4.10;1.00;;;;;;6212019;28;20740;-52
2022/12/07 11:27:11;;;;;;;6.57;6.17;;;4.30;1.00;;;;;;6210103;28;20250;-54
2022/12/07 11:30:20;;;;;;;6.33;6.03;;;4.00;1.00;;;;;;6222408;28;20228;-53
2022/12/07 11:33:34;;;;;;;6.33;5.93;;;4.20;1.00;;;;;;6218544;28;20747;-55
2022/12/07 11:36:41;;;;;;;7.13;6.73;;;4.00;1.00;;;;;;6203010;28;20718;-53
2022/12/07 11:39:50;;;;;;;6.40;6.10;;;4.10;1.00;;;;;;6236684;28;20238;-52
2022/12/07 11:43:00;;;;;;;7.67;7.27;;;4.30;1.00;;;;;;6235422;28;20270;-53
2022/12/07 11:46:09;;;;;;;7.07;6.77;;;4.10;1.00;;;;;;6236321;28;20227;-53
2022/12/07 11:49:20;;;;;;;7.47;6.90;;;4.10;1.00;;;;;;6230487;28;20250;-53
2022/12/07 11:52:28;;;;;;;7.07;6.77;;;4.10;1.00;;;;;;6209857;28;20608;-53
2022/12/07 11:55:41;;;;;;;6.80;6.50;;;4.30;1.00;;;;;;6209509;28;20235;-53
2022/12/07 11:58:49;;;;;;;7.97;7.00;;;4.20;1.00;;;;;;6206983;28;20235;-53
2022/12/07 12:01:57;;;;;;;7.57;6.80;;;4.10;1.00;;;;;;6215340;28;20232;-53
2022/12/07 12:05:12;;;;;;;7.40;6.70;;;4.30;1.00;;;;;;6217718;28;20239;-52
2022/12/07 12:08:19;;;;;;;7.40;6.90;;;4.30;1.00;;;;;;6219101;28;20239;-52
2022/12/07 12:11:57;;;;;;;7.07;6.50;;;4.10;1.00;;;;;;6209623;28;20238;-53
2022/12/07 12:15:30;;;;;;;7.77;6.80;;;4.30;1.00;;;;;;6216392;28;20246;-53
2022/12/07 12:18:53;;;;;;;6.30;5.90;;;4.30;1.00;;;;;;6213387;28;20249;-53
2022/12/07 12:22:03;;;;;;;6.73;6.43;;;4.40;1.00;;;;;;6238675;28;20231;-53
2022/12/07 12:25:16;;;;;;;7.33;6.93;;;4.50;1.00;;;;;;6239521;28;21018;-53
2022/12/07 12:28:25;;;;;;;6.97;6.17;;;4.40;1.00;;;;;;6239712;28;20243;-53
2022/12/07 12:31:39;;;;;;;6.37;5.97;;;4.40;1.00;;;;;;6239088;28;20234;-53
2022/12/07 12:34:58;;;;;;;6.87;5.90;;;4.40;1.00;;;;;;6234645;28;20245;-53
2022/12/07 12:38:35;;;;;;;6.33;5.90;;;4.50;1.00;;;;;;6228477;28;20254;-52
2022/12/07 12:42:07;;;;;;;6.07;5.47;;;4.70;1.00;;;;;;6220925;28;20780;-53
2022/12/07 12:45:21;;;;;;;6.63;6.10;;;4.40;1.00;;;;;;6230065;28;20230;-52
2022/12/07 12:48:30;;;;;;;6.67;6.07;;;4.40;1.00;;;;;;6234349;28;20724;-52
2022/12/07 12:51:39;;;;;;;5.20;5.00;;;4.60;1.00;;;;;;6219762;28;20235;-50
2022/12/07 12:55:00;;;;;;;5.37;4.93;;;4.40;1.00;;;;;;6238296;28;20370;-53
2022/12/07 12:58:29;;;;;;;7.03;5.97;;;4.60;1.00;;;;;;6234480;28;20238;-56
2022/12/07 13:01:44;;;;;;;5.90;5.57;;;4.40;1.00;;;;;;6235593;28;20245;-53
2022/12/07 13:04:56;;;;;;;6.23;5.80;;;4.50;1.00;;;;;;6237081;28;20270;-53
2022/12/07 13:08:02;;;;;;;7.90;5.17;;;4.60;1.00;;;;;;6231947;28;20733;-52
2022/12/07 13:11:19;;;;;;;6.03;5.53;;;4.80;1.00;;;;;;6231056;28;20354;-53
2022/12/07 13:14:44;;;;;;;5.53;5.07;;;4.60;1.00;;;;;;6232741;28;20586;-56
2022/12/07 13:18:00;;;;;;;5.03;4.83;;;4.70;1.00;;;;;;6233702;28;20482;-53
2022/12/07 13:21:03;;;;;;;9.83;5.37;;;4.60;1.00;;;;;;6219084;28;20227;-52
2022/12/07 13:24:13;;;;;;;5.53;5.17;;;4.60;1.00;;;;;;6212618;28;20509;-53
2022/12/07 13:27:16;;;;;;;5.40;5.00;;;4.70;1.00;;;;;;6216775;28;20777;-51
2022/12/07 13:30:22;;;;;;;8.73;5.17;;;4.70;1.00;;;;;;6219666;28;20245;-55
2022/12/07 13:33:29;;;;;;;5.20;4.90;;;4.60;1.00;;;;;;6220175;28;20234;-52
2022/12/07 13:36:36;;;;;;;5.07;4.87;;;4.70;1.00;;;;;;6224775;28;20261;-52
2022/12/07 13:39:48;;;;;;;5.73;4.90;;;4.80;1.00;;;;;;6238109;28;20395;-53
2022/12/07 13:42:59;;;;;;;5.00;4.77;;;4.80;1.00;;;;;;6237982;28;20249;-54
2022/12/07 13:46:08;;;;;;;5.87;5.43;;;4.70;1.00;;;;;;6237194;28;20766;-52
2022/12/07 13:49:21;;;;;;;5.50;5.10;;;4.70;1.00;;;;;;6244334;28;20321;-53
2022/12/07 13:52:26;;;;;;;5.20;4.80;;;4.60;1.00;;;;;;6235930;28;20229;-53
2022/12/07 13:55:30;;;;;;;5.27;5.10;;;4.70;1.00;;;;;;6227021;28;20238;-53
2022/12/07 13:58:34;;;;;;;5.53;5.10;;;4.70;1.00;;;;;;6242444;28;20491;-53
2022/12/07 14:01:39;;;;;;;8.30;5.83;;;4.60;1.00;;;;;;6237572;28;20692;-53
2022/12/07 14:04:42;;;;;;;5.73;5.23;;;4.70;1.00;;;;;;6239894;28;20348;-53
2022/12/07 14:07:54;;;;;;;5.00;4.80;;;4.80;1.00;;;;;;6234690;28;20610;-52
2022/12/07 14:10:58;;;;;;;5.90;5.03;;;4.90;1.00;;;;;;6230215;28;20242;-55
2022/12/07 14:14:03;;;;;;;4.97;4.70;;;4.70;1.00;;;;;;6242901;28;20621;-53
2022/12/07 14:17:16;;;;;;;6.23;5.83;;;4.60;1.00;;;;;;6237957;28;20243;-54
2022/12/07 14:20:33;;;;;;;5.63;4.90;;;4.70;1.00;;;;;;6235799;28;20361;-52
2022/12/07 14:23:37;;;;;;;5.07;4.77;;;4.50;1.00;;;;;;6236957;28;20230;-53
2022/12/07 14:26:41;;;;;;;5.40;4.80;;;4.60;1.00;;;;;;6235311;28;20234;-52
2022/12/07 14:29:44;;;;;;;5.00;4.50;;;4.40;1.00;;;;;;6235397;28;20230;-53
2022/12/07 14:32:51;;;;;;;6.67;5.03;;;4.60;1.00;;;;;;6235652;28;20235;-53
2022/12/07 14:35:55;;;;;;;5.73;5.20;;;4.60;1.00;;;;;;6231487;28;20234;-52
2022/12/07 14:38:59;;;;;;;5.70;4.93;;;4.50;1.00;;;;;;6231713;28;20234;-53
2022/12/07 14:42:02;;;;;;;6.30;5.13;;;4.50;1.00;;;;;;6235821;28;20243;-53
2022/12/07 14:45:11;;;;;;;5.40;5.00;;;4.50;1.00;;;;;;6238844;28;20350;-53
2022/12/07 14:48:16;;;;;;;6.23;5.70;;;4.50;1.00;;;;;;6238702;28;20251;-52
2022/12/07 14:51:41;;;;;;;6.17;5.60;;;4.40;1.00;;;;;;6227515;28;20243;-52
2022/12/07 14:55:04;;;;;;;5.77;5.30;;;4.30;1.00;;;;;;6218685;28;20294;-53
2022/12/07 14:58:13;;;;;;;6.10;5.50;;;4.20;1.00;;;;;;6207712;28;20611;-52
2022/12/07 15:01:16;;;;;;;6.03;5.33;;;4.20;1.00;;;;;;6215795;28;20261;-52
2022/12/07 15:04:20;;;;;;;6.10;4.80;;;4.30;1.00;;;;;;6213481;28;20285;-53
2022/12/07 15:07:25;;;;;;;5.87;5.33;;;4.10;1.00;;;;;;6217283;28;20246;-52
2022/12/07 15:10:31;;;;;;;5.23;4.83;;;4.00;1.00;;;;;;6218956;28;20249;-53
2022/12/07 15:16:55;;;;;;;5.60;4.87;;;3.90;1.00;;;;;;6235382;28;20494;-54
2022/12/07 15:20:19;;;;;;;5.70;5.20;;;3.80;1.00;;;;;;6241630;28;20302;-51
2022/12/07 15:23:22;;;;;;;6.73;4.90;;;4.00;1.00;;;;;;6236602;28;20518;-52
2022/12/07 15:26:25;;;;;;;5.23;4.80;;;4.10;1.00;;;;;;6239617;28;20494;-52
2022/12/07 15:29:28;;;;;;;6.03;5.23;;;4.00;1.00;;;;;;6238496;28;20241;-52
2022/12/07 15:32:31;;;;;;;5.50;5.00;;;4.10;1.00;;;;;;6237590;28;20226;-53
2022/12/07 15:35:39;;;;;;;6.47;5.33;;;3.70;1.00;;;;;;6230277;28;20235;-52
2022/12/07 15:38:42;;;;;;;6.63;5.03;;;3.90;1.00;;;;;;6233749;28;20246;-52
2022/12/07 15:42:05;;;;;;;9.77;4.87;;;3.70;1.00;;;;;;6228619;28;20253;-51
2022/12/07 15:45:09;;;;;;;6.87;5.47;;;3.90;1.00;;;;;;6235586;28;20617;-52
2022/12/07 15:48:11;;;;;;;6.23;4.93;;;3.70;1.00;;;;;;6235462;28;20301;-53
2022/12/07 15:51:32;;;;;;;6.37;5.80;;;3.80;1.00;;;;;;6235946;28;20726;-54
2022/12/07 15:54:35;;;;;;;8.27;5.20;;;3.90;1.00;;;;;;6234763;28;20400;-51
2022/12/07 15:57:40;;;;;;;5.80;5.17;;;4.00;1.00;;;;;;6231729;28;20272;-50
2022/12/07 16:00:43;;;;;;;9.53;5.27;;;4.00;1.00;;;;;;6235474;28;20479;-52
2022/12/07 16:03:47;;;;;;;6.27;5.67;;;4.10;1.00;;;;;;6238307;28;20242;-52
2022/12/07 16:06:51;;;;;;;5.40;4.93;;;3.90;1.00;;;;;;6238848;28;20254;-52
2022/12/07 16:09:54;;;;;;;6.97;5.03;;;3.90;1.00;;;;;;6238102;28;20613;-54
2022/12/07 16:12:57;;;;;;;5.93;5.43;;;3.90;1.00;;;;;;6236032;28;20716;-52
2022/12/07 16:16:04;;;;;;;5.67;5.10;;;3.80;1.00;;;;;;6236096;28;20226;-51
2022/12/07 16:19:07;;;;;;;9.60;5.10;;;4.00;1.00;;;;;;6237774;28;20740;-53
2022/12/07 16:22:12;;;;;;;5.60;4.73;;;3.80;1.00;;;;;;6240789;28;20261;-54
2022/12/07 16:25:15;;;;;;;7.77;5.50;;;4.00;1.00;;;;;;6235973;28;20647;-53
2022/12/07 16:28:18;;;;;;;4.70;4.43;;;3.80;1.00;;;;;;6232323;28;20238;-53
2022/12/07 16:31:23;;;;;;;5.17;4.67;;;3.80;1.00;;;;;;6238269;28;20239;-53
2022/12/07 16:34:26;;;;;;;6.07;5.47;;;3.80;1.00;;;;;;6243597;28;20245;-53
2022/12/07 16:37:30;;;;;;;5.70;5.17;;;3.70;1.00;;;;;;6232617;28;20261;-52